sensor_id;sensor_type;location;lat;lon;timestamp;pressure;altitude;pressure_sealevel;temperature;humidity
70921;BME280;58572;48.110;19.838;2023-02-15T00:01:09;99363.88;;;1.27;74.48
70921;BME280;58572;48.110;19.838;2023-02-15T00:03:37;99366.03;;;1.17;76.04
70921;BME280;58572;48.110;19.838;2023-02-15T00:06:04;99367.50;;;1.05;76.01
70921;BME280;58572;48.110;19.838;2023-02-15T00:08:32;99362.59;;;1.23;75.53
70921;BME280;58572;48.110;19.838;2023-02-15T00:11:06;99355.66;;;2.08;71.31
70921;BME280;58572;48.110;19.838;2023-02-15T00:13:35;99358.53;;;1.64;70.59
70921;BME280;58572;48.110;19.838;2023-02-15T00:16:05;99358.44;;;1.57;72.08
70921;BME280;58572;48.110;19.838;2023-02-15T00:18:33;99357.06;;;1.82;69.12
70921;BME280;58572;48.110;19.838;2023-02-15T00:21:04;99362.88;;;1.28;72.66
70921;BME280;58572;48.110;19.838;2023-02-15T00:23:31;99361.16;;;1.78;71.29
70921;BME280;58572;48.110;19.838;2023-02-15T00:26:06;99361.69;;;1.16;73.09
70921;BME280;58572;48.110;19.838;2023-02-15T00:28:35;99371.84;;;1.06;75.69
70921;BME280;58572;48.110;19.838;2023-02-15T00:31:04;99372.50;;;1.59;73.03
70921;BME280;58572;48.110;19.838;2023-02-15T00:33:31;99370.94;;;1.50;73.28
70921;BME280;58572;48.110;19.838;2023-02-15T00:35:59;99368.75;;;1.75;71.68
70921;BME280;58572;48.110;19.838;2023-02-15T00:38:26;99361.31;;;1.19;73.56
70921;BME280;58572;48.110;19.838;2023-02-15T00:40:54;99354.19;;;1.63;72.46
70921;BME280;58572;48.110;19.838;2023-02-15T00:43:21;99359.44;;;1.35;73.45
70921;BME280;58572;48.110;19.838;2023-02-15T00:45:50;99359.47;;;1.05;74.98
70921;BME280;58572;48.110;19.838;2023-02-15T00:48:17;99352.09;;;1.07;76.40
70921;BME280;58572;48.110;19.838;2023-02-15T00:50:45;99350.31;;;1.29;75.24
70921;BME280;58572;48.110;19.838;2023-02-15T00:53:13;99344.63;;;1.39;75.49
70921;BME280;58572;48.110;19.838;2023-02-15T00:55:40;99347.59;;;1.44;74.93
70921;BME280;58572;48.110;19.838;2023-02-15T00:58:07;99349.75;;;1.34;75.70
70921;BME280;58572;48.110;19.838;2023-02-15T01:00:34;99344.97;;;1.14;75.76
70921;BME280;58572;48.110;19.838;2023-02-15T01:03:03;99344.88;;;1.22;76.07
70921;BME280;58572;48.110;19.838;2023-02-15T01:05:30;99334.91;;;1.16;76.00
70921;BME280;58572;48.110;19.838;2023-02-15T01:07:58;99149.69;;;-0.04;76.22
70921;BME280;58572;48.110;19.838;2023-02-15T01:10:27;99341.38;;;1.07;76.45
70921;BME280;58572;48.110;19.838;2023-02-15T01:12:55;99339.34;;;1.09;76.47
70921;BME280;58572;48.110;19.838;2023-02-15T01:15:22;99338.91;;;1.42;75.37
70921;BME280;58572;48.110;19.838;2023-02-15T01:17:50;99338.97;;;1.48;74.94
70921;BME280;58572;48.110;19.838;2023-02-15T01:20:21;99334.06;;;1.52;75.07
70921;BME280;58572;48.110;19.838;2023-02-15T01:22:49;99333.06;;;1.53;75.16
70921;BME280;58572;48.110;19.838;2023-02-15T01:25:16;99334.75;;;1.39;73.53
70921;BME280;58572;48.110;19.838;2023-02-15T01:27:44;99339.06;;;1.55;73.91
70921;BME280;58572;48.110;19.838;2023-02-15T01:30:12;99336.50;;;1.47;72.54
70921;BME280;58572;48.110;19.838;2023-02-15T01:32:40;99334.19;;;1.44;74.20
70921;BME280;58572;48.110;19.838;2023-02-15T01:35:08;99328.72;;;1.52;73.42
70921;BME280;58572;48.110;19.838;2023-02-15T01:37:37;98997.13;;;-0.38;71.71
70921;BME280;58572;48.110;19.838;2023-02-15T01:40:06;99264.59;;;1.50;70.17
70921;BME280;58572;48.110;19.838;2023-02-15T01:42:34;99324.63;;;1.99;68.72
70921;BME280;58572;48.110;19.838;2023-02-15T01:45:03;99326.00;;;2.09;67.98
70921;BME280;58572;48.110;19.838;2023-02-15T01:47:35;99324.31;;;1.66;68.92
70921;BME280;58572;48.110;19.838;2023-02-15T01:50:09;99307.16;;;1.60;68.65
70921;BME280;58572;48.110;19.838;2023-02-15T01:52:42;99306.63;;;0.99;71.05
70921;BME280;58572;48.110;19.838;2023-02-15T01:55:11;99323.09;;;0.67;73.25
70921;BME280;58572;48.110;19.838;2023-02-15T01:57:39;99340.53;;;1.07;71.56
70921;BME280;58572;48.110;19.838;2023-02-15T02:00:08;99318.06;;;1.22;70.95
70921;BME280;58572;48.110;19.838;2023-02-15T02:02:35;99117.53;;;-0.40;73.41
70921;BME280;58572;48.110;19.838;2023-02-15T02:05:05;99318.75;;;1.10;73.81
70921;BME280;58572;48.110;19.838;2023-02-15T02:07:36;99177.25;;;-0.03;74.56
70921;BME280;58572;48.110;19.838;2023-02-15T02:10:11;99189.72;;;0.19;73.04
70921;BME280;58572;48.110;19.838;2023-02-15T02:12:41;99316.81;;;0.89;74.31
70921;BME280;58572;48.110;19.838;2023-02-15T02:15:09;99314.41;;;0.94;72.48
70921;BME280;58572;48.110;19.838;2023-02-15T02:17:46;99308.72;;;1.33;71.27
70921;BME280;58572;48.110;19.838;2023-02-15T02:20:43;99182.59;;;0.56;69.27
70921;BME280;58572;48.110;19.838;2023-02-15T02:23:39;99316.44;;;0.62;73.67
70921;BME280;58572;48.110;19.838;2023-02-15T02:32:34;99313.16;;;1.62;69.54
70921;BME280;58572;48.110;19.838;2023-02-15T02:35:10;99318.63;;;1.75;68.34
70921;BME280;58572;48.110;19.838;2023-02-15T02:37:47;99313.97;;;2.05;66.64
70921;BME280;58572;48.110;19.838;2023-02-15T02:40:20;99309.97;;;1.73;67.37
70921;BME280;58572;48.110;19.838;2023-02-15T02:42:58;99315.59;;;1.21;70.47
70921;BME280;58572;48.110;19.838;2023-02-15T02:45:31;99261.25;;;1.27;67.91
70921;BME280;58572;48.110;19.838;2023-02-15T02:48:03;99312.75;;;1.65;67.96
70921;BME280;58572;48.110;19.838;2023-02-15T02:50:33;99323.72;;;1.49;68.12
70921;BME280;58572;48.110;19.838;2023-02-15T02:53:01;99328.41;;;1.25;68.98
70921;BME280;58572;48.110;19.838;2023-02-15T02:55:30;99328.63;;;0.80;70.99
70921;BME280;58572;48.110;19.838;2023-02-15T02:58:02;99334.53;;;0.90;70.29
70921;BME280;58572;48.110;19.838;2023-02-15T03:00:32;99341.91;;;0.58;71.25
70921;BME280;58572;48.110;19.838;2023-02-15T03:03:04;99332.22;;;1.16;69.14
70921;BME280;58572;48.110;19.838;2023-02-15T03:05:39;99327.41;;;0.38;72.71
70921;BME280;58572;48.110;19.838;2023-02-15T03:08:08;99334.34;;;0.77;70.31
70921;BME280;58572;48.110;19.838;2023-02-15T03:10:38;99332.53;;;1.43;68.56
70921;BME280;58572;48.110;19.838;2023-02-15T03:13:06;99334.72;;;0.44;72.22
70921;BME280;58572;48.110;19.838;2023-02-15T03:15:38;99337.81;;;0.18;74.30
70921;BME280;58572;48.110;19.838;2023-02-15T03:18:25;99329.28;;;0.00;75.93
70921;BME280;58572;48.110;19.838;2023-02-15T03:20:55;99341.88;;;0.29;75.47
70921;BME280;58572;48.110;19.838;2023-02-15T03:23:24;99247.63;;;-0.25;76.16
70921;BME280;58572;48.110;19.838;2023-02-15T03:25:57;99329.59;;;0.20;75.98
70921;BME280;58572;48.110;19.838;2023-02-15T03:28:28;99328.16;;;0.32;75.83
70921;BME280;58572;48.110;19.838;2023-02-15T03:31:00;99326.00;;;0.13;74.97
70921;BME280;58572;48.110;19.838;2023-02-15T03:33:29;99324.75;;;0.97;72.08
70921;BME280;58572;48.110;19.838;2023-02-15T03:36:03;99324.28;;;0.49;71.82
70921;BME280;58572;48.110;19.838;2023-02-15T03:38:37;99335.00;;;0.64;70.82
70921;BME280;58572;48.110;19.838;2023-02-15T03:41:08;99328.25;;;0.83;70.79
70921;BME280;58572;48.110;19.838;2023-02-15T03:43:42;99340.06;;;0.74;69.94
70921;BME280;58572;48.110;19.838;2023-02-15T03:46:15;99328.25;;;0.98;70.12
70921;BME280;58572;48.110;19.838;2023-02-15T03:48:48;99301.88;;;0.80;69.90
70921;BME280;58572;48.110;19.838;2023-02-15T03:51:20;99333.63;;;0.83;70.83
70921;BME280;58572;48.110;19.838;2023-02-15T03:54:02;99327.41;;;0.97;70.04
70921;BME280;58572;48.110;19.838;2023-02-15T03:56:30;99333.41;;;0.99;70.21
70921;BME280;58572;48.110;19.838;2023-02-15T03:58:58;99334.63;;;0.82;69.73
70921;BME280;58572;48.110;19.838;2023-02-15T04:01:48;99334.69;;;1.03;68.71
70921;BME280;58572;48.110;19.838;2023-02-15T04:04:33;99329.72;;;0.56;70.47
70921;BME280;58572;48.110;19.838;2023-02-15T04:07:04;99338.59;;;-0.19;74.53
70921;BME280;58572;48.110;19.838;2023-02-15T04:09:31;99327.78;;;0.94;71.32
70921;BME280;58572;48.110;19.838;2023-02-15T04:12:15;99317.91;;;1.09;67.81
70921;BME280;58572;48.110;19.838;2023-02-15T04:14:42;99330.44;;;1.23;68.89
70921;BME280;58572;48.110;19.838;2023-02-15T04:17:27;99328.81;;;1.08;68.57
70921;BME280;58572;48.110;19.838;2023-02-15T04:19:54;99297.44;;;0.87;67.82
70921;BME280;58572;48.110;19.838;2023-02-15T04:22:40;99332.03;;;1.03;68.84
70921;BME280;58572;48.110;19.838;2023-02-15T04:25:25;99327.16;;;1.07;69.32
70921;BME280;58572;48.110;19.838;2023-02-15T04:27:53;99332.22;;;1.02;68.18
70921;BME280;58572;48.110;19.838;2023-02-15T04:30:22;99220.13;;;0.62;67.09
70921;BME280;58572;48.110;19.838;2023-02-15T04:32:50;99345.03;;;1.36;67.00
70921;BME280;58572;48.110;19.838;2023-02-15T04:35:17;99347.38;;;0.80;68.30
70921;BME280;58572;48.110;19.838;2023-02-15T04:37:45;99354.16;;;0.01;71.79
70921;BME280;58572;48.110;19.838;2023-02-15T04:40:14;99350.69;;;0.52;70.09
70921;BME280;58572;48.110;19.838;2023-02-15T04:42:41;99356.09;;;0.44;70.21
70921;BME280;58572;48.110;19.838;2023-02-15T04:45:10;99354.13;;;0.23;70.02
70921;BME280;58572;48.110;19.838;2023-02-15T04:47:37;99349.66;;;0.53;69.17
70921;BME280;58572;48.110;19.838;2023-02-15T04:50:05;99346.53;;;0.64;68.63
70921;BME280;58572;48.110;19.838;2023-02-15T04:52:32;99218.09;;;-0.70;70.33
70921;BME280;58572;48.110;19.838;2023-02-15T04:55:01;99346.06;;;0.46;69.34
70921;BME280;58572;48.110;19.838;2023-02-15T04:57:28;99356.63;;;-0.21;73.99
70921;BME280;58572;48.110;19.838;2023-02-15T04:59:55;99355.59;;;0.11;71.87
70921;BME280;58572;48.110;19.838;2023-02-15T05:02:22;99352.16;;;0.84;68.30
70921;BME280;58572;48.110;19.838;2023-02-15T05:04:49;99355.94;;;0.90;67.73
70921;BME280;58572;48.110;19.838;2023-02-15T05:07:16;99355.56;;;0.63;68.95
70921;BME280;58572;48.110;19.838;2023-02-15T05:09:45;99364.41;;;0.49;68.98
70921;BME280;58572;48.110;19.838;2023-02-15T05:12:14;99351.72;;;0.14;71.64
70921;BME280;58572;48.110;19.838;2023-02-15T05:14:41;99368.84;;;0.42;68.42
70921;BME280;58572;48.110;19.838;2023-02-15T05:17:08;99364.97;;;-0.16;73.15
70921;BME280;58572;48.110;19.838;2023-02-15T05:19:35;99273.28;;;-0.39;72.11
70921;BME280;58572;48.110;19.838;2023-02-15T05:22:03;99365.94;;;0.29;69.16
70921;BME280;58572;48.110;19.838;2023-02-15T05:24:30;99362.56;;;-0.11;73.26
70921;BME280;58572;48.110;19.838;2023-02-15T05:27:16;99364.88;;;0.38;70.05
70921;BME280;58572;48.110;19.838;2023-02-15T05:30:00;99373.66;;;0.09;72.35
70921;BME280;58572;48.110;19.838;2023-02-15T05:32:27;99368.84;;;0.42;70.69
70921;BME280;58572;48.110;19.838;2023-02-15T05:34:54;99362.41;;;0.81;68.14
70921;BME280;58572;48.110;19.838;2023-02-15T05:37:21;99378.03;;;0.25;72.16
70921;BME280;58572;48.110;19.838;2023-02-15T05:39:48;99379.97;;;-0.15;75.26
70921;BME280;58572;48.110;19.838;2023-02-15T05:42:17;99381.38;;;0.04;72.32
70921;BME280;58572;48.110;19.838;2023-02-15T05:44:44;99383.47;;;0.31;72.07
70921;BME280;58572;48.110;19.838;2023-02-15T05:47:11;99389.78;;;-0.30;75.87
70921;BME280;58572;48.110;19.838;2023-02-15T05:49:38;99389.41;;;-0.27;76.59
70921;BME280;58572;48.110;19.838;2023-02-15T05:52:05;99389.31;;;-0.11;75.75
70921;BME280;58572;48.110;19.838;2023-02-15T05:54:32;99340.22;;;-0.63;75.77
70921;BME280;58572;48.110;19.838;2023-02-15T05:56:59;99396.31;;;-0.10;76.19
70921;BME280;58572;48.110;19.838;2023-02-15T05:59:28;99392.50;;;-0.15;75.76
70921;BME280;58572;48.110;19.838;2023-02-15T06:01:55;99390.25;;;-0.04;75.99
70921;BME280;58572;48.110;19.838;2023-02-15T06:04:22;99388.47;;;-0.11;76.79
70921;BME280;58572;48.110;19.838;2023-02-15T06:06:49;99378.81;;;0.48;72.21
70921;BME280;58572;48.110;19.838;2023-02-15T06:09:16;99394.28;;;0.38;73.13
70921;BME280;58572;48.110;19.838;2023-02-15T06:11:45;99387.22;;;0.60;72.85
70921;BME280;58572;48.110;19.838;2023-02-15T06:14:12;99395.25;;;0.22;73.87
70921;BME280;58572;48.110;19.838;2023-02-15T06:16:41;99396.75;;;0.02;76.33
70921;BME280;58572;48.110;19.838;2023-02-15T06:19:08;99395.59;;;-0.04;76.05
70921;BME280;58572;48.110;19.838;2023-02-15T06:21:36;99394.75;;;0.04;76.16
70921;BME280;58572;48.110;19.838;2023-02-15T06:24:03;99393.28;;;-0.07;77.06
70921;BME280;58572;48.110;19.838;2023-02-15T06:26:30;99390.91;;;-0.02;75.81
70921;BME280;58572;48.110;19.838;2023-02-15T06:28:58;99395.25;;;-0.01;76.35
70921;BME280;58572;48.110;19.838;2023-02-15T06:31:25;99396.44;;;0.20;76.21
70921;BME280;58572;48.110;19.838;2023-02-15T06:33:54;99397.25;;;-0.03;76.86
70921;BME280;58572;48.110;19.838;2023-02-15T06:36:26;99398.94;;;-0.02;77.12
70921;BME280;58572;48.110;19.838;2023-02-15T06:38:53;99270.59;;;-0.85;77.50
70921;BME280;58572;48.110;19.838;2023-02-15T06:41:21;99393.31;;;0.16;76.78
70921;BME280;58572;48.110;19.838;2023-02-15T06:43:48;99398.84;;;0.15;77.42
70921;BME280;58572;48.110;19.838;2023-02-15T06:46:15;99384.56;;;-0.01;77.63
70921;BME280;58572;48.110;19.838;2023-02-15T06:48:42;99411.19;;;0.16;77.21
70921;BME280;58572;48.110;19.838;2023-02-15T06:51:11;99399.41;;;0.25;77.48
70921;BME280;58572;48.110;19.838;2023-02-15T06:53:38;99404.91;;;0.09;78.27
70921;BME280;58572;48.110;19.838;2023-02-15T06:56:07;99402.28;;;0.23;77.89
70921;BME280;58572;48.110;19.838;2023-02-15T06:58:34;99292.53;;;-0.44;78.44
70921;BME280;58572;48.110;19.838;2023-02-15T07:01:01;99410.00;;;0.18;77.72
70921;BME280;58572;48.110;19.838;2023-02-15T07:03:29;99405.66;;;0.17;78.25
70921;BME280;58572;48.110;19.838;2023-02-15T07:05:56;99409.81;;;0.20;78.06
70921;BME280;58572;48.110;19.838;2023-02-15T07:08:25;99410.47;;;0.22;78.52
70921;BME280;58572;48.110;19.838;2023-02-15T07:10:53;99352.19;;;-0.06;77.49
70921;BME280;58572;48.110;19.838;2023-02-15T07:13:41;99411.16;;;0.39;77.44
70921;BME280;58572;48.110;19.838;2023-02-15T07:16:08;99413.28;;;0.43;78.01
70921;BME280;58572;48.110;19.838;2023-02-15T07:18:36;99295.59;;;-0.32;77.08
70921;BME280;58572;48.110;19.838;2023-02-15T07:21:04;99414.09;;;0.67;77.73
70921;BME280;58572;48.110;19.838;2023-02-15T07:23:35;99421.09;;;0.68;77.31
70921;BME280;58572;48.110;19.838;2023-02-15T07:26:02;99409.91;;;0.49;78.59
70921;BME280;58572;48.110;19.838;2023-02-15T07:28:30;99420.16;;;0.60;78.01
70921;BME280;58572;48.110;19.838;2023-02-15T07:30:57;99409.34;;;1.21;76.37
70921;BME280;58572;48.110;19.838;2023-02-15T07:33:24;99402.00;;;1.00;76.17
70921;BME280;58572;48.110;19.838;2023-02-15T07:35:53;99406.53;;;0.70;78.39
70921;BME280;58572;48.110;19.838;2023-02-15T07:38:22;99319.59;;;0.51;76.30
70921;BME280;58572;48.110;19.838;2023-02-15T07:40:51;99405.78;;;0.76;78.40
70921;BME280;58572;48.110;19.838;2023-02-15T07:43:18;99398.22;;;0.80;78.31
70921;BME280;58572;48.110;19.838;2023-02-15T07:45:45;99390.38;;;0.78;79.11
70921;BME280;58572;48.110;19.838;2023-02-15T07:48:12;99397.84;;;0.83;79.02
70921;BME280;58572;48.110;19.838;2023-02-15T07:50:39;99392.44;;;1.06;78.00
70921;BME280;58572;48.110;19.838;2023-02-15T07:53:06;99392.31;;;0.99;78.41
70921;BME280;58572;48.110;19.838;2023-02-15T07:55:33;99393.16;;;1.00;77.94
70921;BME280;58572;48.110;19.838;2023-02-15T07:58:02;99352.09;;;1.07;76.83
70921;BME280;58572;48.110;19.838;2023-02-15T08:00:29;99384.88;;;1.09;77.76
70921;BME280;58572;48.110;19.838;2023-02-15T08:03:16;99388.44;;;1.31;76.89
70921;BME280;58572;48.110;19.838;2023-02-15T08:05:44;99387.44;;;1.17;78.04
70921;BME280;58572;48.110;19.838;2023-02-15T08:08:11;99377.69;;;1.46;76.61
70921;BME280;58572;48.110;19.838;2023-02-15T08:10:58;99382.72;;;1.19;78.56
70921;BME280;58572;48.110;19.838;2023-02-15T08:13:45;99322.19;;;1.40;75.80
70921;BME280;58572;48.110;19.838;2023-02-15T08:16:23;99376.31;;;1.50;76.93
70921;BME280;58572;48.110;19.838;2023-02-15T08:18:50;99383.44;;;1.43;77.13
70921;BME280;58572;48.110;19.838;2023-02-15T08:21:18;99374.75;;;1.41;78.34
70921;BME280;58572;48.110;19.838;2023-02-15T08:23:45;99362.44;;;2.25;73.35
70921;BME280;58572;48.110;19.838;2023-02-15T08:26:12;99362.38;;;1.97;76.04
70921;BME280;58572;48.110;19.838;2023-02-15T08:28:41;99332.03;;;1.54;76.26
70921;BME280;58572;48.110;19.838;2023-02-15T08:31:09;99364.50;;;2.23;76.37
70921;BME280;58572;48.110;19.838;2023-02-15T08:33:39;99338.25;;;2.46;73.75
70921;BME280;58572;48.110;19.838;2023-02-15T08:36:08;99363.22;;;2.19;74.54
70921;BME280;58572;48.110;19.838;2023-02-15T08:38:36;99352.78;;;2.59;74.69
70921;BME280;58572;48.110;19.838;2023-02-15T08:41:11;99254.03;;;2.47;73.49
70921;BME280;58572;48.110;19.838;2023-02-15T08:43:39;99356.81;;;3.58;71.14
70921;BME280;58572;48.110;19.838;2023-02-15T08:46:07;99187.03;;;2.26;73.23
70921;BME280;58572;48.110;19.838;2023-02-15T08:48:35;99351.28;;;3.66;73.47
70921;BME280;58572;48.110;19.838;2023-02-15T08:51:07;99353.38;;;3.77;73.88
70921;BME280;58572;48.110;19.838;2023-02-15T08:53:36;99350.81;;;5.28;71.59
70921;BME280;58572;48.110;19.838;2023-02-15T08:56:04;99332.38;;;7.55;64.61
70921;BME280;58572;48.110;19.838;2023-02-15T08:58:31;99343.94;;;4.21;70.93
70921;BME280;58572;48.110;19.838;2023-02-15T09:00:58;99320.63;;;7.61;64.29
70921;BME280;58572;48.110;19.838;2023-02-15T09:03:27;99325.31;;;7.18;62.17
70921;BME280;58572;48.110;19.838;2023-02-15T09:06:00;99233.94;;;8.45;58.89
70921;BME280;58572;48.110;19.838;2023-02-15T09:08:28;99314.31;;;8.51;58.07
70921;BME280;58572;48.110;19.838;2023-02-15T09:11:04;99232.69;;;7.22;57.94
70921;BME280;58572;48.110;19.838;2023-02-15T09:13:32;99318.69;;;9.50;55.66
70921;BME280;58572;48.110;19.838;2023-02-15T09:16:00;99329.28;;;8.53;58.79
70921;BME280;58572;48.110;19.838;2023-02-15T09:18:31;99333.53;;;8.19;59.85
70921;BME280;58572;48.110;19.838;2023-02-15T09:21:06;99319.81;;;10.11;54.57
70921;BME280;58572;48.110;19.838;2023-02-15T09:23:34;99320.22;;;9.46;55.05
70921;BME280;58572;48.110;19.838;2023-02-15T09:26:05;99233.59;;;7.76;58.66
70921;BME280;58572;48.110;19.838;2023-02-15T09:28:34;99332.72;;;7.89;57.57
70921;BME280;58572;48.110;19.838;2023-02-15T09:31:06;99326.97;;;7.37;62.60
70921;BME280;58572;48.110;19.838;2023-02-15T09:33:34;99334.44;;;8.13;58.16
70921;BME280;58572;48.110;19.838;2023-02-15T09:36:02;99278.66;;;11.30;50.69
70921;BME280;58572;48.110;19.838;2023-02-15T09:38:30;99326.00;;;8.21;58.99
70921;BME280;58572;48.110;19.838;2023-02-15T09:41:08;99167.00;;;9.71;52.04
70921;BME280;58572;48.110;19.838;2023-02-15T09:43:42;99307.13;;;11.01;53.37
70921;BME280;58572;48.110;19.838;2023-02-15T09:46:26;99314.78;;;10.48;52.84
70921;BME280;58572;48.110;19.838;2023-02-15T09:49:02;99304.53;;;10.72;50.25
70921;BME280;58572;48.110;19.838;2023-02-15T09:51:50;99306.25;;;9.83;54.63
70921;BME280;58572;48.110;19.838;2023-02-15T09:54:38;99288.28;;;13.97;46.18
70921;BME280;58572;48.110;19.838;2023-02-15T09:57:15;99285.59;;;14.79;44.33
70921;BME280;58572;48.110;19.838;2023-02-15T09:59:50;99297.59;;;12.82;47.67
70921;BME280;58572;48.110;19.838;2023-02-15T10:02:34;99296.16;;;11.78;50.76
70921;BME280;58572;48.110;19.838;2023-02-15T10:05:16;99289.25;;;13.56;48.25
70921;BME280;58572;48.110;19.838;2023-02-15T10:08:03;99300.19;;;12.02;49.05
70921;BME280;58572;48.110;19.838;2023-02-15T10:10:43;99294.41;;;12.26;50.85
70921;BME280;58572;48.110;19.838;2023-02-15T10:13:23;99263.38;;;13.16;46.95
70921;BME280;58572;48.110;19.838;2023-02-15T10:16:01;99300.13;;;10.49;53.80
70921;BME280;58572;48.110;19.838;2023-02-15T10:18:43;99298.03;;;12.36;49.70
70921;BME280;58572;48.110;19.838;2023-02-15T10:21:23;99287.69;;;13.75;47.05
70921;BME280;58572;48.110;19.838;2023-02-15T10:24:04;99298.03;;;12.36;47.20
70921;BME280;58572;48.110;19.838;2023-02-15T10:26:42;99302.81;;;10.33;54.78
70921;BME280;58572;48.110;19.838;2023-02-15T10:29:19;99309.34;;;10.65;50.32
70921;BME280;58572;48.110;19.838;2023-02-15T10:31:57;99304.59;;;11.16;51.71
70921;BME280;58572;48.110;19.838;2023-02-15T10:34:34;99279.53;;;14.11;43.44
70921;BME280;58572;48.110;19.838;2023-02-15T10:40:25;99282.25;;;13.95;45.86
70921;BME280;58572;48.110;19.838;2023-02-15T10:43:08;99222.78;;;13.35;43.58
70921;BME280;58572;48.110;19.838;2023-02-15T10:45:49;99296.97;;;9.50;51.22
70921;BME280;58572;48.110;19.838;2023-02-15T10:51:16;99185.75;;;12.92;41.50
70921;BME280;58572;48.110;19.838;2023-02-15T10:54:00;99263.09;;;13.90;46.69
70921;BME280;58572;48.110;19.838;2023-02-15T10:56:37;99216.06;;;12.11;47.33
70921;BME280;58572;48.110;19.838;2023-02-15T10:59:23;99276.41;;;10.83;47.13
70921;BME280;58572;48.110;19.838;2023-02-15T11:01:55;99260.63;;;12.64;46.95
70921;BME280;58572;48.110;19.838;2023-02-15T11:04:48;99248.94;;;14.59;43.50
70921;BME280;58572;48.110;19.838;2023-02-15T11:07:21;99244.91;;;13.38;46.40
70921;BME280;58572;48.110;19.838;2023-02-15T11:09:53;99261.03;;;10.39;48.58
70921;BME280;58572;48.110;19.838;2023-02-15T11:12:24;99257.38;;;9.83;52.55
70921;BME280;58572;48.110;19.838;2023-02-15T11:15:00;99260.63;;;11.24;49.44
70921;BME280;58572;48.110;19.838;2023-02-15T11:17:35;99252.66;;;10.57;47.91
70921;BME280;58572;48.110;19.838;2023-02-15T11:20:09;99240.06;;;12.14;49.29
70921;BME280;58572;48.110;19.838;2023-02-15T11:22:38;99231.94;;;12.56;44.33
70921;BME280;58572;48.110;19.838;2023-02-15T11:25:17;99237.97;;;11.18;50.47
70921;BME280;58572;48.110;19.838;2023-02-15T11:27:46;99222.91;;;14.52;42.93
70921;BME280;58572;48.110;19.838;2023-02-15T11:30:19;99233.03;;;10.94;50.54
70921;BME280;58572;48.110;19.838;2023-02-15T11:32:50;99235.88;;;11.04;51.78
70921;BME280;58572;48.110;19.838;2023-02-15T11:35:24;99223.69;;;13.56;44.53
70921;BME280;58572;48.110;19.838;2023-02-15T11:37:58;99217.72;;;14.55;43.26
70921;BME280;58572;48.110;19.838;2023-02-15T11:40:30;99241.91;;;10.00;50.94
70921;BME280;58572;48.110;19.838;2023-02-15T11:43:04;99240.56;;;9.01;54.67
70921;BME280;58572;48.110;19.838;2023-02-15T11:45:35;99228.72;;;11.68;44.74
70921;BME280;58572;48.110;19.838;2023-02-15T11:48:09;99237.53;;;9.37;53.63
70921;BME280;58572;48.110;19.838;2023-02-15T11:50:37;99167.38;;;11.12;51.27
70921;BME280;58572;48.110;19.838;2023-02-15T11:53:09;99202.34;;;14.85;42.78
70921;BME280;58572;48.110;19.838;2023-02-15T11:55:37;99209.50;;;12.96;46.13
70921;BME280;58572;48.110;19.838;2023-02-15T11:58:08;99217.31;;;11.23;49.67
70921;BME280;58572;48.110;19.838;2023-02-15T12:00:43;99219.34;;;11.32;50.76
70921;BME280;58572;48.110;19.838;2023-02-15T12:03:16;99213.50;;;11.45;48.95
70921;BME280;58572;48.110;19.838;2023-02-15T12:05:46;99209.13;;;11.98;49.74
70921;BME280;58572;48.110;19.838;2023-02-15T12:08:19;99210.81;;;8.77;52.76
70921;BME280;58572;48.110;19.838;2023-02-15T12:10:57;99212.44;;;10.59;50.38
70921;BME280;58572;48.110;19.838;2023-02-15T12:13:25;99202.63;;;10.58;48.04
70921;BME280;58572;48.110;19.838;2023-02-15T12:15:56;99214.44;;;8.24;55.26
70921;BME280;58572;48.110;19.838;2023-02-15T12:18:38;99198.25;;;10.57;51.26
70921;BME280;58572;48.110;19.838;2023-02-15T12:21:07;99195.66;;;9.95;54.71
70921;BME280;58572;48.110;19.838;2023-02-15T12:23:43;99186.34;;;9.74;53.72
70921;BME280;58572;48.110;19.838;2023-02-15T12:26:14;99180.44;;;10.66;53.20
70921;BME280;58572;48.110;19.838;2023-02-15T12:28:50;99188.75;;;10.21;51.88
70921;BME280;58572;48.110;19.838;2023-02-15T12:31:23;99197.44;;;7.29;57.88
70921;BME280;58572;48.110;19.838;2023-02-15T12:33:53;99190.19;;;7.41;61.52
70921;BME280;58572;48.110;19.838;2023-02-15T12:36:22;99175.38;;;9.52;57.17
70921;BME280;58572;48.110;19.838;2023-02-15T12:42:14;99171.56;;;8.68;57.40
70921;BME280;58572;48.110;19.838;2023-02-15T12:44:54;99184.91;;;6.68;59.91
70921;BME280;58572;48.110;19.838;2023-02-15T12:47:23;99090.63;;;6.30;61.38
70921;BME280;58572;48.110;19.838;2023-02-15T12:50:14;99157.56;;;8.24;58.80
70921;BME280;58572;48.110;19.838;2023-02-15T12:52:45;99161.66;;;7.27;58.05
70921;BME280;58572;48.110;19.838;2023-02-15T12:55:24;99158.59;;;7.53;57.92
70921;BME280;58572;48.110;19.838;2023-02-15T12:58:15;99161.53;;;6.92;59.10
70921;BME280;58572;48.110;19.838;2023-02-15T13:00:43;99160.75;;;6.36;62.58
70921;BME280;58572;48.110;19.838;2023-02-15T13:03:18;99162.09;;;6.46;61.52
70921;BME280;58572;48.110;19.838;2023-02-15T13:05:49;99112.78;;;5.70;63.55
70921;BME280;58572;48.110;19.838;2023-02-15T13:08:20;99151.13;;;6.77;61.26
70921;BME280;58572;48.110;19.838;2023-02-15T13:10:59;99152.88;;;5.67;64.14
70921;BME280;58572;48.110;19.838;2023-02-15T13:13:28;99140.94;;;7.62;59.06
70921;BME280;58572;48.110;19.838;2023-02-15T13:15:58;99148.28;;;6.72;61.48
70921;BME280;58572;48.110;19.838;2023-02-15T13:18:31;99144.06;;;7.06;62.18
70921;BME280;58572;48.110;19.838;2023-02-15T13:21:06;99143.88;;;6.59;61.39
70921;BME280;58572;48.110;19.838;2023-02-15T13:23:37;99125.44;;;7.81;57.07
70921;BME280;58572;48.110;19.838;2023-02-15T13:26:09;99137.06;;;6.38;62.12
70921;BME280;58572;48.110;19.838;2023-02-15T13:28:40;99100.22;;;6.26;63.89
70921;BME280;58572;48.110;19.838;2023-02-15T13:31:13;99138.41;;;5.61;66.27
70921;BME280;58572;48.110;19.838;2023-02-15T13:33:45;99137.56;;;5.86;64.58
70921;BME280;58572;48.110;19.838;2023-02-15T13:36:20;99130.03;;;5.44;66.25